createdAt,value
2023-02-14T00:01:00.414Z,25.48
2023-02-14T00:06:07.024Z,25.45
2023-02-14T00:11:21.935Z,25.39
2023-02-14T00:16:29.200Z,25.30
2023-02-14T00:21:36.283Z,25.18
2023-02-14T00:26:43.537Z,25.00
2023-02-14T00:31:50.922Z,24.84
2023-02-14T00:36:57.931Z,24.65
2023-02-14T00:42:05.108Z,24.48
2023-02-14T00:47:12.368Z,24.32
2023-02-14T00:52:19.501Z,24.11
2023-02-14T00:57:26.987Z,23.92
2023-02-14T01:02:34.325Z,23.74
2023-02-14T01:07:41.395Z,23.57
2023-02-14T01:12:48.541Z,23.41
2023-02-14T01:17:55.760Z,23.25
2023-02-14T01:23:02.893Z,23.09
2023-02-14T01:28:10.126Z,22.94
2023-02-14T01:33:17.417Z,22.81
2023-02-14T01:38:24.622Z,22.71
2023-02-14T01:43:31.892Z,22.61
2023-02-14T01:48:39.220Z,22.49
2023-02-14T01:53:46.452Z,22.35
2023-02-14T01:58:53.669Z,22.27
2023-02-14T02:04:00.910Z,22.18
2023-02-14T02:09:08.148Z,22.11
2023-02-14T02:14:15.350Z,21.98
2023-02-14T02:19:22.564Z,21.93
2023-02-14T02:24:29.720Z,21.84
2023-02-14T02:29:36.894Z,21.76
2023-02-14T02:34:44.112Z,21.65
2023-02-14T02:39:51.272Z,21.58
2023-02-14T02:44:58.459Z,21.50
2023-02-14T02:50:05.673Z,21.42
2023-02-14T02:55:12.832Z,21.33
2023-02-14T03:00:20.015Z,21.25
2023-02-14T03:05:27.218Z,21.16
2023-02-14T03:10:34.491Z,21.08
2023-02-14T03:15:41.737Z,21.00
2023-02-14T03:20:48.844Z,20.89
2023-02-14T03:25:56.062Z,20.77
2023-02-14T03:31:03.681Z,20.74
2023-02-14T03:36:10.427Z,20.66
2023-02-14T03:41:17.583Z,20.63
2023-02-14T03:46:24.893Z,20.65
2023-02-14T03:51:32.090Z,20.63
2023-02-14T03:56:39.259Z,20.58
2023-02-14T04:01:46.566Z,20.57
2023-02-14T04:06:53.658Z,20.48
2023-02-14T04:12:00.798Z,20.47
2023-02-14T04:17:07.983Z,20.41
2023-02-14T04:22:15.181Z,20.37
2023-02-14T04:27:22.754Z,20.30
2023-02-14T04:32:30.007Z,20.24
2023-02-14T04:37:37.152Z,20.15
2023-02-14T04:42:44.298Z,20.07
2023-02-14T04:47:51.489Z,20.00
2023-02-14T04:52:58.685Z,19.94
2023-02-14T04:58:05.875Z,19.99
2023-02-14T05:03:13.136Z,19.99
2023-02-14T05:08:20.429Z,19.95
2023-02-14T05:13:27.604Z,19.95
2023-02-14T05:18:34.906Z,19.87
2023-02-14T05:23:42.108Z,19.84
2023-02-14T05:28:49.327Z,19.83
2023-02-14T05:33:56.534Z,19.82
2023-02-14T05:39:03.791Z,19.76
2023-02-14T05:44:10.920Z,19.76
2023-02-14T05:49:18.109Z,19.77
2023-02-14T05:54:25.333Z,19.75
2023-02-14T05:59:32.482Z,19.70
2023-02-14T06:04:39.729Z,19.67
2023-02-14T06:09:46.904Z,19.65
2023-02-14T06:14:54.173Z,19.62
2023-02-14T06:20:01.439Z,19.59
2023-02-14T06:25:08.704Z,19.53
2023-02-14T06:30:16.004Z,19.53
2023-02-14T06:35:23.182Z,19.54
2023-02-14T06:40:30.398Z,19.54
2023-02-14T06:45:37.545Z,19.51
2023-02-14T06:50:44.730Z,19.47
2023-02-14T06:55:51.976Z,19.46
2023-02-14T07:00:59.564Z,19.42
2023-02-14T07:06:06.395Z,19.42
2023-02-14T07:11:13.571Z,19.40
2023-02-14T07:16:20.749Z,19.42
2023-02-14T07:21:27.923Z,19.37
2023-02-14T07:26:35.131Z,19.37
2023-02-14T07:31:42.430Z,19.36
2023-02-14T07:36:49.528Z,19.31
2023-02-14T07:41:56.838Z,19.30
2023-02-14T07:47:04.019Z,19.29
2023-02-14T07:52:11.234Z,19.31
2023-02-14T07:57:18.509Z,19.33
2023-02-14T08:02:25.705Z,19.36
2023-02-14T08:07:32.892Z,19.39
2023-02-14T08:12:40.105Z,19.48
2023-02-14T08:17:47.269Z,19.62
2023-02-14T08:22:54.511Z,19.79
2023-02-14T08:28:01.762Z,20.01
2023-02-14T08:33:09.002Z,20.18
2023-02-14T08:38:16.307Z,20.37
2023-02-14T08:43:23.554Z,20.48
2023-02-14T08:48:30.767Z,20.62
2023-02-14T08:53:37.952Z,20.77
2023-02-14T08:58:45.170Z,20.90
2023-02-14T09:03:52.390Z,21.16
2023-02-14T09:09:01.584Z,21.36
2023-02-14T09:14:06.887Z,21.52
2023-02-14T09:19:14.948Z,21.69
2023-02-14T09:24:22.212Z,21.78
2023-02-14T09:29:29.494Z,21.87
2023-02-14T09:34:36.678Z,21.96
2023-02-14T09:39:43.903Z,22.07
2023-02-14T09:44:51.243Z,22.11
2023-02-14T09:49:58.408Z,22.20
2023-02-14T09:55:05.633Z,22.22
2023-02-14T10:00:12.827Z,22.24
2023-02-14T10:05:20.095Z,22.28
2023-02-14T10:10:27.464Z,22.33
2023-02-14T10:15:34.686Z,22.41
2023-02-14T10:20:41.856Z,22.46
2023-02-14T10:25:49.062Z,22.50
2023-02-14T10:30:56.430Z,22.51
2023-02-14T10:36:03.453Z,22.61
2023-02-14T10:41:10.665Z,22.67
2023-02-14T10:46:18.357Z,22.75
2023-02-14T10:51:25.002Z,22.81
2023-02-14T10:56:32.182Z,22.87
2023-02-14T11:01:39.596Z,22.98
2023-02-14T11:06:46.556Z,23.03
2023-02-14T11:11:53.764Z,23.20
2023-02-14T11:17:01.052Z,23.32
2023-02-14T11:22:08.208Z,23.39
2023-02-14T11:27:15.413Z,23.45
2023-02-14T11:32:22.630Z,23.45
2023-02-14T11:37:29.760Z,23.43
2023-02-14T11:42:36.996Z,23.44
2023-02-14T11:47:44.261Z,23.42
2023-02-14T11:52:51.438Z,23.44
2023-02-14T11:57:58.601Z,23.42
2023-02-14T12:03:05.823Z,23.45
2023-02-14T12:08:12.991Z,23.49
2023-02-14T12:13:20.160Z,23.51
2023-02-14T12:18:27.367Z,23.56
2023-02-14T12:23:34.533Z,23.52
2023-02-14T12:28:41.774Z,23.53
2023-02-14T12:33:50.615Z,23.50
2023-02-14T12:38:56.180Z,23.41
2023-02-14T12:44:03.366Z,23.39
2023-02-14T12:49:10.626Z,23.42
2023-02-14T12:54:17.837Z,23.51
2023-02-14T12:59:25.035Z,23.55
2023-02-14T13:04:32.233Z,23.62
2023-02-14T13:09:39.399Z,23.69
2023-02-14T13:14:46.567Z,23.69
2023-02-14T13:19:54.358Z,23.71
2023-02-14T13:25:00.957Z,23.72
2023-02-14T13:30:08.214Z,23.73
2023-02-14T13:35:15.354Z,23.77
2023-02-14T13:40:22.523Z,23.79
2023-02-14T13:45:29.760Z,23.79
2023-02-14T13:50:36.981Z,23.79
2023-02-14T13:55:44.276Z,23.77
2023-02-14T14:00:51.547Z,23.75
2023-02-14T14:05:59.215Z,23.75
2023-02-14T14:11:06.040Z,23.79
2023-02-14T14:16:13.345Z,23.85
2023-02-14T14:21:20.562Z,23.91
2023-02-14T14:26:27.669Z,23.89
2023-02-14T14:31:35.035Z,23.87
2023-02-14T14:36:42.033Z,23.83
2023-02-14T14:41:49.243Z,23.83
2023-02-14T14:46:56.412Z,23.77
2023-02-14T14:52:03.711Z,23.75
2023-02-14T14:57:10.890Z,23.76
2023-02-14T15:02:18.057Z,23.79
2023-02-14T15:07:25.278Z,23.83
2023-02-14T15:12:32.463Z,23.86
2023-02-14T15:17:39.632Z,23.92
2023-02-14T15:22:46.949Z,23.95
2023-02-14T15:27:54.102Z,23.96
2023-02-14T15:33:01.346Z,23.97
2023-02-14T15:38:08.597Z,24.01
2023-02-14T15:43:15.749Z,24.06
2023-02-14T15:48:23.261Z,24.06
2023-02-14T15:53:30.653Z,24.05
2023-02-14T15:58:37.981Z,24.05
2023-02-14T16:03:45.319Z,24.05
2023-02-14T16:08:52.587Z,24.03
2023-02-14T16:13:59.756Z,23.98
2023-02-14T16:19:07.106Z,23.97
2023-02-14T16:24:14.481Z,23.92
2023-02-14T16:29:21.740Z,23.88
2023-02-14T16:34:29.325Z,23.90
2023-02-14T16:39:36.725Z,23.95
2023-02-14T16:44:43.905Z,23.96
2023-02-14T16:49:51.447Z,24.01
2023-02-14T16:54:58.890Z,24.03
2023-02-14T17:00:06.080Z,24.02
2023-02-14T17:05:13.310Z,24.00
2023-02-14T17:10:20.534Z,23.99
2023-02-14T17:15:27.987Z,23.94
2023-02-14T17:20:35.601Z,23.92
2023-02-14T17:25:43.030Z,23.92
2023-02-14T17:30:50.334Z,23.96
2023-02-14T17:35:57.828Z,23.97
2023-02-14T17:41:05.474Z,24.01
2023-02-14T17:46:12.911Z,24.02
2023-02-14T17:51:20.172Z,24.04
2023-02-14T17:56:29.256Z,23.98
2023-02-14T18:01:36.875Z,24.04
2023-02-14T18:06:44.441Z,24.04
2023-02-14T18:11:52.078Z,24.10
2023-02-14T18:16:59.787Z,24.11
2023-02-14T18:22:07.391Z,24.10
2023-02-14T18:27:15.127Z,24.09
2023-02-14T18:32:22.534Z,24.04
2023-02-14T18:37:30.126Z,24.04
2023-02-14T18:42:37.758Z,24.04
2023-02-14T18:47:45.349Z,24.11
2023-02-14T18:52:53.016Z,24.14
2023-02-14T18:58:00.642Z,24.19
2023-02-14T19:03:08.200Z,24.20
2023-02-14T19:08:15.612Z,24.19
2023-02-14T19:13:23.082Z,24.16
2023-02-14T19:18:30.641Z,24.15
2023-02-14T19:23:38.364Z,24.13
2023-02-14T19:28:46.092Z,24.11
2023-02-14T19:33:54.707Z,24.11
2023-02-14T19:39:02.427Z,24.15
2023-02-14T19:44:10.163Z,24.17
2023-02-14T19:49:17.856Z,24.19
2023-02-14T19:54:25.484Z,24.18
2023-02-14T19:59:33.109Z,24.17
2023-02-14T20:04:41.615Z,24.16
2023-02-14T20:09:49.138Z,24.12
2023-02-14T20:14:56.782Z,24.14
2023-02-14T20:20:04.465Z,24.16
2023-02-14T20:25:12.177Z,24.19
2023-02-14T20:30:19.867Z,24.24
2023-02-14T20:35:27.511Z,24.25
2023-02-14T20:40:35.131Z,24.30
2023-02-14T20:45:42.871Z,24.30
2023-02-14T20:50:50.557Z,24.27
2023-02-14T20:55:58.235Z,24.25
2023-02-14T21:01:05.971Z,24.21
2023-02-14T21:06:16.368Z,24.15
2023-02-14T21:11:23.990Z,24.13
2023-02-14T21:16:31.735Z,24.09
2023-02-14T21:21:39.327Z,24.08
2023-02-14T21:26:46.955Z,24.11
2023-02-14T21:31:54.690Z,24.15
2023-02-14T21:37:02.173Z,24.19
2023-02-14T21:42:10.814Z,24.19
2023-02-14T21:47:18.447Z,24.24
2023-02-14T21:52:26.133Z,24.21
2023-02-14T21:57:33.751Z,24.16
2023-02-14T22:02:41.417Z,24.13
2023-02-14T22:07:49.184Z,24.14
2023-02-14T22:12:56.544Z,24.15
2023-02-14T22:18:03.715Z,24.14
2023-02-14T22:23:11.004Z,24.15
2023-02-14T22:28:18.176Z,24.23
2023-02-14T22:33:25.395Z,24.26
2023-02-14T22:38:32.530Z,24.28
2023-02-14T22:43:39.728Z,24.28
2023-02-14T22:48:46.918Z,24.27
2023-02-14T22:53:54.087Z,24.24
2023-02-14T22:59:01.274Z,24.31
2023-02-14T23:04:08.576Z,24.38
2023-02-14T23:09:15.750Z,24.41
2023-02-14T23:14:23.045Z,24.45
2023-02-14T23:19:30.282Z,24.51
2023-02-14T23:24:37.509Z,24.60
2023-02-14T23:29:44.653Z,24.74
2023-02-14T23:34:51.937Z,24.83
2023-02-14T23:39:59.173Z,24.95
2023-02-14T23:45:06.387Z,25.06
2023-02-14T23:50:13.664Z,25.08
2023-02-14T23:55:20.843Z,25.15
